createdAt,value
2019-05-26T00:00:41.608Z,7.87
2019-05-26T00:01:46.815Z,7.77
2019-05-26T00:02:52.821Z,7.80
2019-05-26T00:03:58.041Z,8.20
2019-05-26T00:05:03.698Z,8.60
2019-05-26T00:06:08.792Z,8.10
2019-05-26T00:07:27.924Z,8.00
2019-05-26T00:08:21.360Z,7.73
2019-05-26T00:09:27.132Z,8.53
2019-05-26T00:10:32.322Z,8.33
2019-05-26T00:11:38.320Z,8.70
2019-05-26T00:12:44.024Z,8.37
2019-05-26T00:13:49.760Z,8.20
2019-05-26T00:14:55.145Z,8.07
2019-05-26T00:16:01.001Z,8.13
2019-05-26T00:17:06.140Z,8.37
2019-05-26T00:18:12.018Z,8.47
2019-05-26T00:19:17.223Z,8.20
2019-05-26T00:20:22.953Z,8.17
2019-05-26T00:21:28.022Z,8.90
2019-05-26T00:22:33.842Z,8.87
2019-05-26T00:23:38.921Z,7.70
2019-05-26T00:24:44.832Z,8.43
2019-05-26T00:25:50.113Z,8.67
2019-05-26T00:26:57.377Z,8.20
2019-05-26T00:28:02.532Z,8.50
2019-05-26T00:29:08.723Z,8.90
2019-05-26T00:30:14.601Z,8.83
2019-05-26T00:31:20.444Z,8.60
2019-05-26T00:32:25.756Z,8.63
2019-05-26T00:33:33.184Z,8.90
2019-05-26T00:34:38.381Z,9.73
2019-05-26T00:35:44.262Z,8.70
2019-05-26T00:36:49.944Z,9.17
2019-05-26T00:37:55.830Z,9.10
2019-05-26T00:39:01.110Z,9.33
2019-05-26T00:40:09.544Z,8.80
2019-05-26T00:41:14.802Z,9.60
2019-05-26T00:42:20.526Z,9.47
2019-05-26T00:43:25.802Z,9.67
2019-05-26T00:44:31.605Z,9.50
2019-05-26T00:45:36.812Z,9.13
2019-05-26T00:46:42.642Z,9.50
2019-05-26T00:47:47.954Z,9.20
2019-05-26T00:48:53.641Z,9.63
2019-05-26T00:49:58.793Z,9.90
2019-05-26T00:51:05.788Z,9.77
2019-05-26T00:52:11.057Z,9.07
2019-05-26T00:53:16.678Z,9.67
2019-05-26T00:54:22.115Z,9.40
2019-05-26T00:55:27.875Z,9.70
2019-05-26T00:56:33.010Z,9.73
2019-05-26T00:57:38.992Z,9.77
2019-05-26T00:58:46.640Z,10.13
2019-05-26T00:59:52.432Z,9.37
2019-05-26T01:00:57.984Z,9.43
2019-05-26T01:02:03.803Z,10.37
2019-05-26T01:03:09.397Z,9.63
2019-05-26T01:04:15.189Z,9.13
2019-05-26T01:05:20.436Z,8.60
2019-05-26T01:06:26.218Z,10.60
2019-05-26T01:07:31.437Z,10.17
2019-05-26T01:08:37.320Z,9.33
2019-05-26T01:09:42.556Z,9.47
2019-05-26T01:10:49.455Z,9.53
2019-05-26T01:11:54.792Z,10.20
2019-05-26T01:13:00.556Z,10.10
2019-05-26T01:14:05.775Z,9.77
2019-05-26T01:15:13.417Z,10.20
2019-05-26T01:16:18.657Z,9.70
2019-05-26T01:17:24.523Z,9.43
2019-05-26T01:18:29.783Z,9.47
2019-05-26T01:19:35.508Z,9.90
2019-05-26T01:20:40.673Z,10.27
2019-05-26T01:21:46.473Z,10.30
2019-05-26T01:22:53.859Z,9.87
2019-05-26T01:23:59.265Z,10.13
2019-05-26T01:25:05.968Z,9.80
2019-05-26T01:26:11.720Z,10.10
2019-05-26T01:27:16.845Z,9.27
2019-05-26T01:28:22.460Z,9.73
2019-05-26T01:29:27.637Z,9.47
2019-05-26T01:30:39.938Z,9.53
2019-05-26T01:31:45.226Z,9.70
2019-05-26T01:32:50.957Z,9.50
2019-05-26T01:33:56.181Z,9.80
2019-05-26T01:35:02.004Z,9.43
2019-05-26T01:36:07.538Z,9.17
2019-05-26T01:37:13.324Z,9.50
2019-05-26T01:38:24.207Z,9.93
2019-05-26T01:39:26.614Z,9.90
2019-05-26T01:40:42.843Z,9.90
2019-05-26T01:41:48.591Z,10.20
2019-05-26T01:42:53.709Z,10.60
2019-05-26T01:43:59.496Z,10.07
2019-05-26T01:45:05.982Z,9.80
2019-05-26T01:46:11.835Z,10.27
2019-05-26T01:47:16.921Z,9.77
2019-05-26T01:48:22.600Z,9.43
2019-05-26T01:49:27.712Z,9.27
2019-05-26T01:50:33.364Z,10.20
2019-05-26T01:51:38.550Z,9.60
2019-05-26T01:52:44.346Z,9.93
2019-05-26T01:53:49.498Z,10.60
2019-05-26T01:54:55.180Z,10.00
2019-05-26T01:56:00.291Z,10.40
2019-05-26T01:57:06.092Z,10.77
2019-05-26T01:58:11.182Z,10.43
2019-05-26T01:59:16.947Z,9.47
2019-05-26T02:00:22.161Z,10.43
2019-05-26T02:01:27.883Z,10.10
2019-05-26T02:02:33.020Z,9.57
2019-05-26T02:03:38.864Z,10.30
2019-05-26T02:04:43.960Z,10.30
2019-05-26T02:05:49.766Z,10.27
2019-05-26T02:06:54.898Z,10.63
2019-05-26T02:08:00.717Z,10.10
2019-05-26T02:09:07.950Z,10.03
2019-05-26T02:10:13.797Z,10.43
2019-05-26T02:11:19.023Z,10.07
2019-05-26T02:12:24.843Z,10.07
2019-05-26T02:13:29.979Z,9.73
2019-05-26T02:14:35.777Z,9.97
2019-05-26T02:15:40.850Z,9.67
2019-05-26T02:16:46.599Z,10.20
2019-05-26T02:17:51.691Z,10.37
2019-05-26T02:18:57.528Z,10.70
2019-05-26T02:20:02.802Z,10.20
2019-05-26T02:21:08.640Z,10.50
2019-05-26T02:22:13.717Z,10.47
2019-05-26T02:23:20.612Z,10.07
2019-05-26T02:24:25.822Z,11.43
2019-05-26T02:25:31.567Z,10.30
2019-05-26T02:26:36.799Z,10.43
2019-05-26T02:27:42.553Z,10.37
2019-05-26T02:28:47.793Z,11.57
2019-05-26T02:29:53.550Z,11.27
2019-05-26T02:30:58.729Z,10.47
2019-05-26T02:32:04.498Z,10.97
2019-05-26T02:33:09.670Z,10.40
2019-05-26T02:34:15.468Z,10.53
2019-05-26T02:35:22.181Z,10.37
2019-05-26T02:36:27.881Z,10.33
2019-05-26T02:37:32.942Z,10.97
2019-05-26T02:38:57.367Z,10.40
2019-05-26T02:39:45.383Z,11.17
2019-05-26T02:40:51.173Z,11.37
2019-05-26T02:41:56.232Z,11.50
2019-05-26T02:43:02.073Z,11.17
2019-05-26T02:44:07.245Z,12.20
2019-05-26T02:45:15.931Z,11.77
2019-05-26T02:46:21.093Z,11.70
2019-05-26T02:47:26.820Z,10.90
2019-05-26T02:48:32.017Z,11.93
2019-05-26T02:49:37.759Z,11.23
2019-05-26T02:50:42.878Z,11.13
2019-05-26T02:51:48.724Z,10.87
2019-05-26T02:52:53.844Z,11.07
2019-05-26T02:53:59.711Z,11.30
2019-05-26T02:55:05.106Z,11.53
2019-05-26T02:56:10.982Z,11.30
2019-05-26T02:57:16.161Z,11.33
2019-05-26T02:58:21.899Z,11.03
2019-05-26T02:59:27.085Z,11.17
2019-05-26T03:00:45.660Z,11.27
2019-05-26T03:02:03.383Z,11.13
2019-05-26T03:02:58.302Z,11.53
2019-05-26T03:04:03.539Z,10.60
2019-05-26T03:05:10.452Z,11.97
2019-05-26T03:06:17.291Z,12.03
2019-05-26T03:07:24.413Z,10.83
2019-05-26T03:08:29.832Z,11.47
2019-05-26T03:09:37.475Z,10.57
2019-05-26T03:10:42.687Z,11.10
2019-05-26T03:11:51.370Z,12.07
2019-05-26T03:12:57.327Z,11.57
2019-05-26T03:14:04.804Z,10.60
2019-05-26T03:15:10.530Z,10.87
2019-05-26T03:16:18.572Z,11.03
2019-05-26T03:17:25.701Z,10.83
2019-05-26T03:18:35.809Z,10.60
2019-05-26T03:19:42.084Z,10.63
2019-05-26T03:20:47.823Z,10.77
2019-05-26T03:21:55.965Z,10.63
2019-05-26T03:23:03.854Z,11.63
2019-05-26T03:24:13.130Z,11.20
2019-05-26T03:25:18.894Z,10.90
2019-05-26T03:26:27.677Z,11.40
2019-05-26T03:27:33.485Z,10.97
2019-05-26T03:28:38.651Z,10.73
2019-05-26T03:29:44.378Z,10.97
2019-05-26T03:30:49.458Z,11.10
2019-05-26T03:31:55.328Z,11.27
2019-05-26T03:33:00.565Z,10.60
2019-05-26T03:34:06.251Z,10.80
2019-05-26T03:35:14.226Z,11.07
2019-05-26T03:36:20.005Z,10.77
2019-05-26T03:37:25.148Z,11.23
2019-05-26T03:38:30.889Z,11.93
2019-05-26T03:39:44.305Z,11.23
2019-05-26T03:40:43.472Z,11.63
2019-05-26T03:41:48.657Z,11.20
2019-05-26T03:42:54.372Z,11.87
2019-05-26T03:43:59.599Z,11.43
2019-05-26T03:45:05.897Z,10.50
2019-05-26T03:46:21.181Z,11.30
2019-05-26T03:47:26.956Z,11.43
2019-05-26T03:48:32.061Z,11.60
2019-05-26T03:49:37.901Z,11.73
2019-05-26T03:50:43.055Z,11.23
2019-05-26T03:51:48.817Z,11.00
2019-05-26T03:52:53.869Z,11.47
2019-05-26T03:53:59.655Z,12.50
2019-05-26T03:55:05.331Z,11.63
2019-05-26T03:56:12.152Z,11.77
2019-05-26T03:57:17.264Z,11.33
2019-05-26T03:58:23.079Z,11.40
2019-05-26T03:59:28.191Z,11.83
2019-05-26T04:00:33.812Z,11.23
2019-05-26T04:01:38.951Z,11.40
2019-05-26T04:02:44.692Z,11.10
2019-05-26T04:03:49.755Z,11.37
2019-05-26T04:04:55.420Z,11.93
2019-05-26T04:06:00.583Z,11.70
2019-05-26T04:07:06.279Z,11.90
2019-05-26T04:08:11.437Z,12.00
2019-05-26T04:09:17.260Z,12.30
2019-05-26T04:10:22.334Z,12.57
2019-05-26T04:11:28.030Z,10.93
2019-05-26T04:12:33.313Z,12.33
2019-05-26T04:13:39.022Z,12.17
2019-05-26T04:14:44.187Z,12.87
2019-05-26T04:15:49.993Z,12.17
2019-05-26T04:16:58.661Z,12.43
2019-05-26T04:18:04.434Z,12.90
2019-05-26T04:19:09.562Z,12.40
2019-05-26T04:20:15.454Z,12.30
2019-05-26T04:21:20.752Z,12.63
2019-05-26T04:22:26.604Z,12.87
2019-05-26T04:23:31.793Z,12.47
2019-05-26T04:24:40.315Z,12.90
2019-05-26T04:25:45.440Z,11.90
2019-05-26T04:26:51.086Z,13.07
2019-05-26T04:27:56.293Z,12.60
2019-05-26T04:29:02.075Z,12.50
2019-05-26T04:30:07.224Z,12.77
2019-05-26T04:31:13.051Z,12.83
2019-05-26T04:32:19.383Z,13.00
2019-05-26T04:33:25.149Z,12.57
2019-05-26T04:34:30.320Z,13.47
2019-05-26T04:35:36.033Z,12.77
2019-05-26T04:36:41.191Z,12.83
2019-05-26T04:37:47.014Z,13.20
2019-05-26T04:38:52.215Z,13.47
2019-05-26T04:39:58.071Z,13.53
2019-05-26T04:41:03.166Z,14.50
2019-05-26T04:42:08.896Z,14.40
2019-05-26T04:43:15.154Z,13.87
2019-05-26T04:44:21.157Z,14.67
2019-05-26T04:45:26.396Z,13.33
2019-05-26T04:46:32.066Z,13.57
2019-05-26T04:47:37.133Z,14.40
2019-05-26T04:48:42.907Z,14.13
2019-05-26T04:49:48.069Z,14.37
2019-05-26T04:50:53.865Z,14.23
2019-05-26T04:51:59.153Z,14.70
2019-05-26T04:53:07.085Z,13.90
2019-05-26T04:54:11.593Z,13.97
2019-05-26T04:55:17.759Z,14.47
2019-05-26T04:56:23.916Z,14.40
2019-05-26T04:57:30.724Z,14.20
2019-05-26T04:58:35.976Z,14.37
2019-05-26T04:59:41.748Z,15.27
2019-05-26T05:00:46.961Z,15.10
2019-05-26T05:01:52.845Z,14.53
2019-05-26T05:02:58.011Z,14.73
2019-05-26T05:04:03.791Z,14.80
2019-05-26T05:05:09.000Z,15.87
2019-05-26T05:06:14.728Z,15.33
2019-05-26T05:07:19.957Z,16.33
2019-05-26T05:08:25.671Z,15.30
2019-05-26T05:09:30.826Z,14.97
2019-05-26T05:10:42.309Z,14.47
2019-05-26T05:11:43.280Z,15.57
2019-05-26T05:12:49.072Z,16.27
2019-05-26T05:13:54.322Z,15.57
2019-05-26T05:15:00.073Z,15.37
2019-05-26T05:16:05.344Z,15.60
2019-05-26T05:17:10.994Z,15.70
2019-05-26T05:18:16.066Z,15.20
2019-05-26T05:19:21.859Z,16.70
2019-05-26T05:20:27.990Z,16.10
2019-05-26T05:21:33.843Z,15.93
2019-05-26T05:22:39.086Z,16.33
2019-05-26T05:23:44.915Z,16.60
2019-05-26T05:24:50.048Z,16.63
2019-05-26T05:25:55.707Z,17.03
2019-05-26T05:27:00.851Z,16.43
2019-05-26T05:28:06.585Z,16.60
2019-05-26T05:29:11.750Z,17.17
2019-05-26T05:30:17.805Z,15.97
2019-05-26T05:31:23.054Z,15.60
2019-05-26T05:32:32.666Z,17.13
2019-05-26T05:33:35.591Z,16.63
2019-05-26T05:34:41.391Z,16.93
2019-05-26T05:35:46.522Z,17.70
2019-05-26T05:36:52.158Z,17.03
2019-05-26T05:37:57.267Z,16.73
2019-05-26T05:39:03.250Z,16.63
2019-05-26T05:40:09.105Z,16.20
2019-05-26T05:41:14.922Z,16.50
2019-05-26T05:42:20.098Z,16.70
2019-05-26T05:43:25.894Z,17.80
2019-05-26T05:44:31.022Z,17.87
2019-05-26T05:45:36.706Z,18.17
2019-05-26T05:46:42.065Z,17.83
2019-05-26T05:47:47.862Z,18.00
2019-05-26T05:48:52.951Z,18.10
2019-05-26T05:49:58.707Z,18.57
2019-05-26T05:51:03.842Z,18.77
2019-05-26T05:52:09.650Z,18.50
2019-05-26T05:53:14.903Z,19.10
2019-05-26T05:54:20.773Z,18.40
2019-05-26T05:55:26.010Z,18.20
2019-05-26T05:56:31.965Z,19.17
2019-05-26T05:57:37.206Z,20.00
2019-05-26T05:58:42.976Z,18.03
2019-05-26T05:59:48.175Z,18.30
2019-05-26T06:00:54.890Z,17.93
2019-05-26T06:02:00.076Z,18.53
2019-05-26T06:03:05.911Z,19.10
2019-05-26T06:04:11.168Z,18.73
2019-05-26T06:05:16.939Z,19.53
2019-05-26T06:06:22.076Z,18.27
2019-05-26T06:07:27.839Z,19.30
2019-05-26T06:08:32.983Z,18.67
2019-05-26T06:09:38.642Z,19.70
2019-05-26T06:10:43.959Z,20.27
2019-05-26T06:11:53.248Z,19.60
2019-05-26T06:12:56.469Z,19.87
2019-05-26T06:14:02.191Z,20.17
2019-05-26T06:15:09.673Z,19.53
2019-05-26T06:16:15.479Z,19.97
2019-05-26T06:17:20.612Z,20.67
2019-05-26T06:18:26.439Z,19.70
2019-05-26T06:19:33.057Z,20.47
2019-05-26T06:20:38.837Z,20.47
2019-05-26T06:21:44.041Z,20.73
2019-05-26T06:22:49.696Z,20.23
2019-05-26T06:23:54.736Z,21.93
2019-05-26T06:25:00.457Z,20.93
2019-05-26T06:26:05.658Z,19.97
2019-05-26T06:27:11.413Z,20.90
2019-05-26T06:28:16.612Z,20.03
2019-05-26T06:29:22.271Z,20.07
2019-05-26T06:30:27.352Z,21.67
2019-05-26T06:31:33.086Z,20.53
2019-05-26T06:32:38.173Z,21.50
2019-05-26T06:33:43.924Z,20.97
2019-05-26T06:34:49.091Z,21.77
2019-05-26T06:35:54.809Z,20.43
2019-05-26T06:36:59.964Z,21.83
2019-05-26T06:38:05.685Z,22.67
2019-05-26T06:39:10.846Z,22.27
2019-05-26T06:40:16.846Z,22.57
2019-05-26T06:41:32.861Z,22.97
2019-05-26T06:42:29.369Z,22.10
2019-05-26T06:43:34.622Z,22.17
2019-05-26T06:44:52.961Z,21.63
2019-05-26T06:45:47.304Z,22.47
2019-05-26T06:46:52.955Z,22.27
2019-05-26T06:47:58.045Z,22.40
2019-05-26T06:49:03.706Z,22.73
2019-05-26T06:50:09.731Z,21.53
2019-05-26T06:51:15.402Z,21.97
2019-05-26T06:52:20.572Z,22.33
2019-05-26T06:53:26.707Z,21.40
2019-05-26T06:54:31.902Z,20.90
2019-05-26T06:55:37.719Z,21.20
2019-05-26T06:56:42.815Z,22.13
2019-05-26T06:57:48.690Z,22.40
2019-05-26T06:58:53.949Z,21.67
2019-05-26T06:59:59.767Z,20.80
2019-05-26T07:01:05.128Z,21.37
2019-05-26T07:02:11.051Z,21.97
2019-05-26T07:03:16.190Z,22.13
2019-05-26T07:04:22.084Z,22.10
2019-05-26T07:05:27.271Z,23.80
2019-05-26T07:06:33.158Z,23.40
2019-05-26T07:07:38.277Z,21.97
2019-05-26T07:08:43.985Z,23.57
2019-05-26T07:09:49.097Z,24.33
2019-05-26T07:10:54.789Z,23.53
2019-05-26T07:12:00.587Z,23.77
2019-05-26T07:13:06.575Z,25.27
2019-05-26T07:14:11.855Z,24.27
2019-05-26T07:15:18.927Z,24.33
2019-05-26T07:16:37.740Z,24.40
2019-05-26T07:17:31.448Z,25.27
2019-05-26T07:18:36.677Z,24.40
2019-05-26T07:19:42.346Z,24.33
2019-05-26T07:20:47.468Z,24.70
2019-05-26T07:21:53.236Z,24.70
2019-05-26T07:22:58.302Z,25.80
2019-05-26T07:24:06.401Z,24.80
2019-05-26T07:25:11.879Z,25.17
2019-05-26T07:26:17.629Z,24.40
2019-05-26T07:27:22.675Z,23.30
2019-05-26T07:28:28.521Z,22.87
2019-05-26T07:29:33.632Z,24.67
2019-05-26T07:30:39.445Z,24.47
2019-05-26T07:31:44.666Z,24.63
2019-05-26T07:32:50.543Z,24.90
2019-05-26T07:33:55.718Z,23.97
2019-05-26T07:35:01.417Z,24.90
2019-05-26T07:36:06.694Z,24.00
2019-05-26T07:37:15.487Z,24.03
2019-05-26T07:38:20.690Z,23.67
2019-05-26T07:39:26.433Z,22.30
2019-05-26T07:40:31.571Z,23.43
2019-05-26T07:41:37.342Z,24.50
2019-05-26T07:42:42.572Z,22.00
2019-05-26T07:43:48.405Z,22.17
2019-05-26T07:44:53.599Z,22.67
2019-05-26T07:45:59.331Z,22.53
2019-05-26T07:47:04.535Z,23.47
2019-05-26T07:48:10.260Z,24.37
2019-05-26T07:49:15.471Z,23.33
2019-05-26T07:50:21.281Z,21.37
2019-05-26T07:51:26.345Z,23.53
2019-05-26T07:52:32.080Z,23.63
2019-05-26T07:53:37.374Z,22.07
2019-05-26T07:54:43.097Z,21.30
2019-05-26T07:55:48.197Z,21.63
2019-05-26T07:56:54.018Z,20.87
2019-05-26T07:57:59.286Z,20.03
2019-05-26T07:59:05.179Z,20.60
2019-05-26T08:00:11.717Z,21.23
2019-05-26T08:01:17.510Z,22.43
2019-05-26T08:02:22.720Z,20.93
2019-05-26T08:03:28.433Z,21.53
2019-05-26T08:04:33.507Z,20.77
2019-05-26T08:05:39.300Z,22.27
2019-05-26T08:06:44.394Z,22.27
2019-05-26T08:07:50.175Z,22.47
2019-05-26T08:08:55.627Z,22.53
2019-05-26T08:10:01.496Z,22.40
2019-05-26T08:11:07.958Z,22.03
2019-05-26T08:12:25.913Z,21.73
2019-05-26T08:13:20.624Z,22.03
2019-05-26T08:14:26.451Z,22.90
2019-05-26T08:15:31.603Z,22.40
2019-05-26T08:16:37.502Z,22.53
2019-05-26T08:17:42.662Z,21.80
2019-05-26T08:18:48.288Z,21.57
2019-05-26T08:19:53.538Z,21.43
2019-05-26T08:20:59.393Z,20.87
2019-05-26T08:22:05.339Z,21.23
2019-05-26T08:23:11.306Z,20.80
2019-05-26T08:24:16.474Z,21.63
2019-05-26T08:25:22.427Z,21.33
2019-05-26T08:26:27.688Z,20.73
2019-05-26T08:27:33.423Z,20.33
2019-05-26T08:28:38.571Z,21.60
2019-05-26T08:29:44.385Z,20.63
2019-05-26T08:30:49.645Z,20.90
2019-05-26T08:31:55.320Z,19.60
2019-05-26T08:33:00.618Z,20.90
2019-05-26T08:34:06.333Z,21.00
2019-05-26T08:35:12.477Z,18.67
2019-05-26T08:36:18.418Z,19.93
2019-05-26T08:37:23.477Z,19.80
2019-05-26T08:38:29.119Z,20.20
2019-05-26T08:39:34.271Z,20.17
2019-05-26T08:40:39.878Z,20.73
2019-05-26T08:41:45.062Z,20.47
2019-05-26T08:42:51.376Z,20.63
2019-05-26T08:43:57.614Z,20.73
2019-05-26T08:45:03.389Z,21.27
2019-05-26T08:46:08.772Z,20.60
2019-05-26T08:47:14.558Z,21.47
2019-05-26T08:48:19.770Z,21.07
2019-05-26T08:49:25.552Z,21.03
2019-05-26T08:50:34.134Z,19.57
2019-05-26T08:51:38.216Z,19.60
2019-05-26T08:52:43.393Z,18.60
2019-05-26T08:53:49.132Z,18.33
2019-05-26T08:54:54.349Z,18.27
2019-05-26T08:56:00.259Z,16.93
2019-05-26T08:57:05.452Z,16.03
2019-05-26T08:58:11.289Z,15.87
2019-05-26T08:59:16.871Z,14.67
2019-05-26T09:00:23.015Z,15.07
2019-05-26T09:01:28.263Z,14.47
2019-05-26T09:02:34.049Z,14.20
2019-05-26T09:03:39.584Z,13.17
2019-05-26T09:04:45.422Z,13.97
2019-05-26T09:05:50.539Z,14.43
2019-05-26T09:06:56.385Z,13.90
2019-05-26T09:08:01.568Z,14.07
2019-05-26T09:09:08.778Z,14.70
2019-05-26T09:10:14.316Z,15.47
2019-05-26T09:11:20.127Z,14.87
2019-05-26T09:12:25.310Z,14.33
2019-05-26T09:13:30.993Z,13.97
2019-05-26T09:14:36.076Z,12.87
2019-05-26T09:15:43.724Z,13.83
2019-05-26T09:16:49.042Z,13.60
2019-05-26T09:17:54.773Z,13.23
2019-05-26T09:18:59.921Z,13.70
2019-05-26T09:20:06.138Z,13.00
2019-05-26T09:21:11.394Z,12.73
2019-05-26T09:22:17.183Z,13.13
2019-05-26T09:23:22.929Z,13.70
2019-05-26T09:24:28.627Z,12.50
2019-05-26T09:25:33.832Z,12.63
2019-05-26T09:26:39.545Z,12.40
2019-05-26T09:27:44.634Z,12.43
2019-05-26T09:28:50.337Z,13.53
2019-05-26T09:29:55.406Z,11.73
2019-05-26T09:31:01.535Z,12.07
2019-05-26T09:32:06.737Z,12.70
2019-05-26T09:33:12.449Z,12.70
2019-05-26T09:34:17.641Z,11.60
2019-05-26T09:35:23.414Z,12.27
2019-05-26T09:36:28.516Z,12.87
2019-05-26T09:37:34.238Z,11.60
2019-05-26T09:38:39.394Z,12.53
2019-05-26T09:39:45.283Z,11.63
2019-05-26T09:40:50.620Z,12.87
2019-05-26T09:41:56.439Z,12.77
2019-05-26T09:43:15.193Z,13.13
2019-05-26T09:44:09.161Z,12.13
2019-05-26T09:45:14.561Z,13.13
2019-05-26T09:46:20.323Z,13.67
2019-05-26T09:47:25.575Z,12.57
2019-05-26T09:48:31.368Z,12.57
2019-05-26T09:49:36.691Z,13.13
2019-05-26T09:50:42.473Z,12.37
2019-05-26T09:51:47.619Z,12.13
2019-05-26T09:52:53.333Z,11.23
2019-05-26T09:54:01.684Z,11.30
2019-05-26T09:55:07.003Z,10.23
2019-05-26T09:56:12.141Z,11.60
2019-05-26T09:57:17.935Z,12.07
2019-05-26T09:58:23.089Z,11.97
2019-05-26T09:59:28.748Z,11.00
2019-05-26T10:00:33.958Z,11.77
2019-05-26T10:01:39.794Z,11.13
2019-05-26T10:02:44.952Z,10.47
2019-05-26T10:03:50.593Z,10.50
2019-05-26T10:04:55.803Z,11.63
2019-05-26T10:06:01.539Z,10.80
2019-05-26T10:07:10.620Z,10.13
2019-05-26T10:08:14.408Z,10.23
2019-05-26T10:09:19.660Z,8.97
2019-05-26T10:10:25.563Z,9.53
2019-05-26T10:11:30.846Z,8.40
2019-05-26T10:12:36.817Z,9.13
2019-05-26T10:13:41.964Z,9.17
2019-05-26T10:14:48.005Z,8.33
2019-05-26T10:15:53.237Z,7.97
2019-05-26T10:16:58.957Z,7.67
2019-05-26T10:18:04.185Z,7.23
2019-05-26T10:19:10.924Z,6.80
2019-05-26T10:20:17.540Z,7.33
2019-05-26T10:21:23.306Z,7.50
2019-05-26T10:22:28.555Z,7.97
2019-05-26T10:23:34.296Z,7.80
2019-05-26T10:24:39.574Z,7.13
2019-05-26T10:25:45.374Z,7.53
2019-05-26T10:26:50.563Z,6.90
2019-05-26T10:27:56.239Z,8.03
2019-05-26T10:29:01.418Z,7.87
2019-05-26T10:30:07.935Z,7.93
2019-05-26T10:31:13.103Z,7.90
2019-05-26T10:32:18.757Z,7.90
2019-05-26T10:33:23.999Z,8.60
2019-05-26T10:34:29.826Z,8.90
2019-05-26T10:35:34.958Z,8.77
2019-05-26T10:36:40.644Z,8.33
2019-05-26T10:37:45.828Z,8.87
2019-05-26T10:38:52.630Z,7.93
2019-05-26T10:39:57.775Z,7.67
2019-05-26T10:41:03.526Z,10.83
2019-05-26T10:42:08.860Z,8.70
2019-05-26T10:43:14.597Z,9.00
2019-05-26T10:44:19.878Z,9.77
2019-05-26T10:45:25.673Z,8.20
2019-05-26T10:46:30.838Z,7.93
2019-05-26T10:47:36.634Z,8.30
2019-05-26T10:48:41.873Z,8.10
2019-05-26T10:49:47.630Z,8.17
2019-05-26T10:50:52.887Z,8.60
2019-05-26T10:51:58.681Z,8.37
2019-05-26T10:53:03.859Z,7.83
2019-05-26T10:54:09.593Z,8.90
2019-05-26T10:55:14.819Z,8.40
2019-05-26T10:56:20.606Z,8.40
2019-05-26T10:57:25.891Z,9.30
2019-05-26T10:58:31.677Z,8.73
2019-05-26T10:59:36.954Z,8.43
2019-05-26T11:00:42.664Z,7.87
2019-05-26T11:01:47.806Z,8.40
2019-05-26T11:02:53.666Z,10.20
2019-05-26T11:03:58.818Z,8.70
2019-05-26T11:05:05.945Z,8.67
2019-05-26T11:06:11.127Z,7.50
2019-05-26T11:07:16.906Z,7.53
2019-05-26T11:08:21.977Z,6.70
2019-05-26T11:09:27.905Z,7.73
2019-05-26T11:10:33.121Z,8.57
2019-05-26T11:11:38.846Z,8.17
2019-05-26T11:12:43.993Z,9.43
2019-05-26T11:14:01.859Z,9.63
2019-05-26T11:14:56.530Z,8.60
2019-05-26T11:16:02.210Z,8.40
2019-05-26T11:17:07.295Z,7.50
2019-05-26T11:18:13.094Z,8.17
2019-05-26T11:19:18.263Z,8.57
2019-05-26T11:20:24.764Z,7.30
2019-05-26T11:21:30.006Z,7.87
2019-05-26T11:22:35.746Z,6.97
2019-05-26T11:23:40.902Z,7.37
2019-05-26T11:24:46.633Z,7.00
2019-05-26T11:25:51.712Z,6.73
2019-05-26T11:27:08.014Z,7.27
2019-05-26T11:28:04.320Z,8.50
2019-05-26T11:29:10.154Z,8.50
2019-05-26T11:30:15.574Z,8.37
2019-05-26T11:31:21.288Z,7.73
2019-05-26T11:32:26.573Z,7.77
2019-05-26T11:33:32.362Z,7.63
2019-05-26T11:34:37.560Z,8.17
2019-05-26T11:35:43.371Z,6.90
2019-05-26T11:36:48.520Z,7.50
2019-05-26T11:37:54.391Z,6.93
2019-05-26T11:38:59.558Z,6.73
2019-05-26T11:40:06.064Z,6.75
2019-05-26T11:41:11.419Z,6.97
2019-05-26T11:42:17.132Z,7.33
2019-05-26T11:43:22.169Z,6.50
2019-05-26T11:44:27.914Z,6.67
2019-05-26T11:45:33.262Z,6.53
2019-05-26T11:46:39.015Z,6.63
2019-05-26T11:47:44.343Z,7.03
2019-05-26T11:48:50.093Z,7.60
2019-05-26T11:49:56.738Z,6.93
2019-05-26T11:51:02.670Z,6.70
2019-05-26T11:52:07.890Z,5.87
2019-05-26T11:53:14.643Z,7.40
2019-05-26T11:54:19.812Z,7.53
2019-05-26T11:55:27.778Z,8.33
2019-05-26T11:56:32.426Z,6.87
2019-05-26T11:57:38.205Z,6.90
2019-05-26T11:58:43.442Z,7.23
2019-05-26T11:59:49.216Z,6.77
2019-05-26T12:00:54.445Z,7.00
2019-05-26T12:02:00.182Z,7.17
2019-05-26T12:03:08.182Z,6.80
2019-05-26T12:04:13.892Z,7.13
2019-05-26T12:05:19.998Z,7.97
2019-05-26T12:06:25.909Z,6.83
2019-05-26T12:07:31.368Z,7.13
2019-05-26T12:08:37.340Z,6.97
2019-05-26T12:09:42.545Z,6.33
2019-05-26T12:10:48.390Z,6.93
2019-05-26T12:11:53.561Z,6.97
2019-05-26T12:12:59.237Z,5.70
2019-05-26T12:14:04.499Z,6.20
2019-05-26T12:15:11.131Z,5.90
2019-05-26T12:16:16.411Z,7.30
2019-05-26T12:17:22.149Z,7.10
2019-05-26T12:18:27.411Z,6.97
2019-05-26T12:19:33.384Z,6.70
2019-05-26T12:20:38.708Z,5.93
2019-05-26T12:21:44.648Z,6.40
2019-05-26T12:22:49.895Z,6.20
2019-05-26T12:23:55.735Z,7.47
2019-05-26T12:25:00.966Z,6.40
2019-05-26T12:26:06.780Z,7.83
2019-05-26T12:27:12.005Z,8.10
2019-05-26T12:28:17.795Z,7.33
2019-05-26T12:29:23.054Z,8.07
2019-05-26T12:30:28.817Z,7.23
2019-05-26T12:31:34.113Z,6.73
2019-05-26T12:32:39.958Z,6.63
2019-05-26T12:33:45.185Z,7.10
2019-05-26T12:34:50.976Z,5.70
2019-05-26T12:35:57.116Z,5.50
2019-05-26T12:37:02.790Z,6.33
2019-05-26T12:38:08.048Z,6.23
2019-05-26T12:39:13.852Z,7.40
2019-05-26T12:40:18.884Z,6.13
2019-05-26T12:41:24.591Z,6.90
2019-05-26T12:42:29.744Z,7.13
2019-05-26T12:43:35.609Z,6.13
2019-05-26T12:44:48.910Z,5.37
2019-05-26T12:45:48.210Z,7.30
2019-05-26T12:46:53.346Z,5.83
2019-05-26T12:47:59.541Z,6.00
2019-05-26T12:49:04.809Z,6.73
2019-05-26T12:50:10.965Z,7.00
2019-05-26T12:51:16.206Z,6.47
2019-05-26T12:52:22.404Z,5.83
2019-05-26T12:53:28.767Z,6.10
2019-05-26T12:54:34.494Z,6.90
2019-05-26T12:55:39.879Z,6.97
2019-05-26T12:56:45.686Z,6.70
2019-05-26T12:57:50.943Z,7.10
2019-05-26T12:58:56.669Z,6.37
2019-05-26T13:00:01.915Z,6.03
2019-05-26T13:01:07.865Z,6.47
2019-05-26T13:02:13.085Z,7.07
2019-05-26T13:03:18.931Z,6.80
2019-05-26T13:04:24.053Z,7.57
2019-05-26T13:05:30.859Z,5.90
2019-05-26T13:06:35.975Z,6.80
2019-05-26T13:07:42.769Z,6.37
2019-05-26T13:08:47.831Z,6.20
2019-05-26T13:09:53.563Z,6.40
2019-05-26T13:10:58.770Z,6.07
2019-05-26T13:12:05.547Z,6.47
2019-05-26T13:13:11.122Z,5.90
2019-05-26T13:14:16.834Z,6.13
2019-05-26T13:15:23.571Z,7.00
2019-05-26T13:16:29.487Z,7.10
2019-05-26T13:17:35.800Z,6.50
2019-05-26T13:18:41.841Z,6.23
2019-05-26T13:19:47.233Z,6.67
2019-05-26T13:20:53.041Z,7.30
2019-05-26T13:21:58.333Z,6.50
2019-05-26T13:23:04.022Z,7.80
2019-05-26T13:24:09.183Z,7.13
2019-05-26T13:25:16.723Z,8.13
2019-05-26T13:26:21.832Z,7.37
2019-05-26T13:27:27.623Z,6.87
2019-05-26T13:28:32.784Z,6.90
2019-05-26T13:29:38.560Z,7.17
2019-05-26T13:30:43.819Z,7.17
2019-05-26T13:31:49.565Z,6.13
2019-05-26T13:32:54.871Z,6.67
2019-05-26T13:34:00.797Z,7.40
2019-05-26T13:35:07.107Z,6.50
2019-05-26T13:36:13.027Z,6.60
2019-05-26T13:37:18.219Z,6.17
2019-05-26T13:38:24.085Z,7.27
2019-05-26T13:39:29.389Z,6.83
2019-05-26T13:40:35.199Z,5.83
2019-05-26T13:41:40.317Z,6.30
2019-05-26T13:42:46.179Z,6.17
2019-05-26T13:43:52.317Z,6.23
2019-05-26T13:45:00.678Z,6.00
2019-05-26T13:46:05.873Z,5.60
2019-05-26T13:47:25.337Z,5.27
2019-05-26T13:48:18.618Z,5.73
2019-05-26T13:49:24.373Z,5.37
2019-05-26T13:50:29.528Z,5.70
2019-05-26T13:51:35.173Z,5.03
2019-05-26T13:52:40.323Z,5.43
2019-05-26T13:53:46.225Z,5.13
2019-05-26T13:54:51.687Z,5.60
2019-05-26T13:55:57.478Z,5.57
2019-05-26T13:57:02.765Z,5.00
2019-05-26T13:58:09.801Z,4.30
2019-05-26T13:59:14.941Z,5.17
2019-05-26T14:00:21.177Z,5.30
2019-05-26T14:01:26.458Z,5.30
2019-05-26T14:02:32.196Z,5.40
2019-05-26T14:03:38.597Z,5.57
2019-05-26T14:04:44.490Z,6.07
2019-05-26T14:05:49.669Z,5.47
2019-05-26T14:06:55.523Z,5.60
2019-05-26T14:08:00.994Z,6.13
2019-05-26T14:09:10.031Z,6.13
2019-05-26T14:10:18.066Z,6.47
2019-05-26T14:11:23.901Z,6.30
2019-05-26T14:12:29.518Z,5.77
2019-05-26T14:13:35.649Z,5.30
2019-05-26T14:14:40.933Z,5.47
2019-05-26T14:15:47.433Z,5.13
2019-05-26T14:16:54.934Z,5.63
2019-05-26T14:18:00.860Z,6.43